Terminal Aerodrome Forecast
Issued by NWS Cleveland, OH

Home | Current Version | Previous Version | Graphics & Text | Print | Product List | Glossary On
Versions: 1 2 3 4 5 6 7 8 9 10 11 12 13 14
035
FTUS41 KCLE 180540
TAFMFD
TAF
KMFD 180540Z 1806/1906 21008KT P6SM SCT007 BKN120
      TEMPO 1807/1811 BKN007
     FM181100 21008KT P6SM BKN010
     FM181400 23010KT P6SM BKN020
     FM181600 24012G20KT P6SM BKN040
     FM181800 25012G22KT P6SM BKN050
     FM182300 25010KT P6SM SCT120=

USA.gov is the U.S. government's official web portal to all federal, state and local government web resources and services.